KMHS/MHS METAR and TAF weather

Enter ICAO airport designator
Station Type Date Time Source
KMHS METAR 2021/07/29 02:56 UTC NOAA

KMHS 290256Z AUTO 00000KT 10SM CLR 27/08 A3009 RMK AO2 SLP175 T02720078 55006


Station Type Date Time Source
KMHS Decoded METAR 2021/07/29 02:56 UTC NOAA

MOUNT SHASTA, CA, United States (KMHS) 41-19N 122-19W 1078M
Jul 28, 2021 - 10:56 PM EDT / 2021.07.29 0256 UTC
Wind: Calm:0
Visibility: 10 mile(s):0
Sky conditions: clear
Temperature: 81.0 F (27.2 C)
Dew Point: 46.0 F (7.8 C)
Relative Humidity: 29%
Pressure (altimeter): 30.09 in. Hg (1018 hPa)
Pressure tendency: 0.02 inches (0.6 hPa) lower than three hours ago
ob: KMHS 290256Z AUTO 00000KT 10SM CLR 27/08 A3009 RMK AO2 SLP175 T02720078 55006
cycle: 3

Station Type Date Time Source
KMHS TAF UTC NOAA

Error!

Example: see airport list